createdAt,value
2023-01-22T00:01:01.387Z,19.97
2023-01-22T00:03:27.763Z,17.37
2023-01-22T00:05:54.093Z,16.53
2023-01-22T00:08:20.645Z,18.53
2023-01-22T00:10:50.626Z,14.93
2023-01-22T00:13:17.067Z,19.90
2023-01-22T00:15:43.412Z,20.73
2023-01-22T00:18:10.042Z,20.43
2023-01-22T00:20:36.437Z,14.93
2023-01-22T00:23:02.767Z,18.43
2023-01-22T00:25:29.101Z,14.90
2023-01-22T00:27:55.589Z,14.10
2023-01-22T00:30:21.983Z,15.87
2023-01-22T00:32:48.344Z,16.17
2023-01-22T00:35:14.791Z,18.00
2023-01-22T00:37:41.086Z,17.63
2023-01-22T00:40:07.622Z,15.27
2023-01-22T00:42:34.039Z,13.03
2023-01-22T00:45:00.448Z,16.67
2023-01-22T00:47:26.766Z,17.83
2023-01-22T00:49:53.183Z,16.77
2023-01-22T00:52:19.477Z,14.03
2023-01-22T00:54:45.932Z,16.23
2023-01-22T00:57:12.213Z,16.13
2023-01-22T00:59:38.533Z,15.53
2023-01-22T01:02:06.616Z,15.90
2023-01-22T01:04:33.024Z,13.67
2023-01-22T01:06:59.378Z,17.73
2023-01-22T01:09:25.714Z,13.70
2023-01-22T01:11:52.041Z,13.00
2023-01-22T01:14:18.357Z,16.10
2023-01-22T01:16:44.738Z,16.43
2023-01-22T01:19:12.038Z,15.13
2023-01-22T01:21:38.877Z,16.50
2023-01-22T01:24:05.708Z,13.90
2023-01-22T01:26:33.458Z,14.37
2023-01-22T01:28:59.761Z,14.67
2023-01-22T01:31:26.551Z,14.20
2023-01-22T01:33:52.945Z,14.70
2023-01-22T01:36:35.249Z,14.20
2023-01-22T01:39:02.750Z,15.80
2023-01-22T01:41:29.050Z,17.13
2023-01-22T01:44:08.820Z,17.10
2023-01-22T01:46:36.914Z,13.67
2023-01-22T01:49:03.346Z,14.90
2023-01-22T01:51:35.542Z,14.10
2023-01-22T01:54:03.164Z,14.80
2023-01-22T01:56:39.396Z,13.03
2023-01-22T01:59:07.338Z,12.10
2023-01-22T02:01:33.651Z,12.57
2023-01-22T02:04:00.490Z,15.03
2023-01-22T02:06:27.034Z,13.30
2023-01-22T02:08:55.040Z,12.00
2023-01-22T02:11:21.964Z,11.67
2023-01-22T02:13:51.482Z,13.30
2023-01-22T02:16:17.984Z,15.50
2023-01-22T02:18:44.253Z,11.87
2023-01-22T02:21:28.569Z,14.97
2023-01-22T02:23:54.985Z,14.27
2023-01-22T02:26:21.381Z,12.00
2023-01-22T02:28:47.725Z,14.23
2023-01-22T02:31:14.332Z,12.87
2023-01-22T02:33:40.686Z,13.73
2023-01-22T02:36:07.256Z,16.77
2023-01-22T02:38:33.632Z,12.67
2023-01-22T02:41:00.317Z,10.90
2023-01-22T02:43:26.617Z,15.10
2023-01-22T02:45:53.475Z,13.17
2023-01-22T02:48:19.847Z,11.57
2023-01-22T02:50:46.449Z,12.73
2023-01-22T02:53:13.215Z,12.80
2023-01-22T02:55:39.660Z,14.77
2023-01-22T02:58:06.002Z,12.93
2023-01-22T03:00:32.447Z,12.13
2023-01-22T03:02:58.748Z,17.60
2023-01-22T03:05:25.392Z,15.77
2023-01-22T03:07:51.716Z,11.80
2023-01-22T03:10:19.394Z,13.57
2023-01-22T03:13:05.223Z,12.63
2023-01-22T03:15:52.475Z,12.40
2023-01-22T03:18:37.459Z,10.97
2023-01-22T03:21:14.189Z,11.37
2023-01-22T03:23:40.668Z,12.27
2023-01-22T03:26:07.486Z,10.67
2023-01-22T03:28:34.144Z,13.20
2023-01-22T03:31:00.544Z,12.10
2023-01-22T03:33:26.993Z,10.50
2023-01-22T03:35:53.293Z,17.03
2023-01-22T03:38:19.607Z,13.03
2023-01-22T03:40:46.011Z,11.40
2023-01-22T03:43:12.414Z,9.73
2023-01-22T03:45:38.857Z,12.93
2023-01-22T03:48:05.381Z,10.83
2023-01-22T03:50:31.875Z,9.87
2023-01-22T03:52:58.225Z,11.40
2023-01-22T03:55:25.566Z,11.67
2023-01-22T03:57:51.877Z,10.93
2023-01-22T04:00:18.626Z,11.53
2023-01-22T04:02:45.155Z,10.20
2023-01-22T04:05:12.549Z,11.43
2023-01-22T04:07:38.890Z,10.37
2023-01-22T04:10:05.451Z,13.00
2023-01-22T04:12:31.863Z,9.40
2023-01-22T04:14:58.134Z,10.67
2023-01-22T04:17:26.638Z,10.03
2023-01-22T04:19:53.205Z,9.10
2023-01-22T04:22:19.506Z,11.30
2023-01-22T04:24:45.788Z,12.43
2023-01-22T04:27:12.181Z,7.83
2023-01-22T04:29:38.499Z,10.20
2023-01-22T04:32:04.886Z,12.90
2023-01-22T04:34:31.258Z,9.33
2023-01-22T04:36:57.627Z,9.93
2023-01-22T04:39:23.910Z,11.23
2023-01-22T04:41:50.203Z,8.33
2023-01-22T04:44:16.576Z,11.07
2023-01-22T04:46:42.892Z,12.10
2023-01-22T04:49:09.289Z,7.53
2023-01-22T04:51:35.691Z,8.80
2023-01-22T04:54:02.002Z,8.43
2023-01-22T04:56:28.297Z,10.67
2023-01-22T04:58:54.578Z,8.23
2023-01-22T05:01:20.940Z,7.83
2023-01-22T05:03:47.326Z,8.40
2023-01-22T05:06:13.706Z,11.60
2023-01-22T05:08:40.003Z,11.07
2023-01-22T05:11:06.328Z,7.87
2023-01-22T05:13:32.688Z,11.40
2023-01-22T05:15:59.155Z,9.40
2023-01-22T05:18:25.471Z,8.47
2023-01-22T05:20:51.920Z,9.47
2023-01-22T05:23:18.263Z,9.77
2023-01-22T05:25:49.201Z,7.77
2023-01-22T05:28:15.527Z,7.67
2023-01-22T05:30:41.932Z,6.47
2023-01-22T05:33:11.259Z,7.30
2023-01-22T05:35:37.854Z,8.60
2023-01-22T05:38:04.152Z,11.23
2023-01-22T05:40:30.491Z,7.10
2023-01-22T05:42:56.899Z,9.30
2023-01-22T05:45:23.343Z,9.33
2023-01-22T05:47:53.661Z,9.90
2023-01-22T05:50:20.688Z,9.80
2023-01-22T05:52:47.194Z,9.50
2023-01-22T05:55:13.637Z,13.70
2023-01-22T05:57:39.925Z,10.03
2023-01-22T06:00:06.655Z,9.43
2023-01-22T06:02:33.018Z,10.53
2023-01-22T06:04:59.408Z,8.50
2023-01-22T06:07:25.805Z,8.70
2023-01-22T06:09:52.126Z,9.63
2023-01-22T06:12:18.566Z,8.20
2023-01-22T06:14:44.911Z,7.57
2023-01-22T06:17:11.330Z,9.33
2023-01-22T06:19:37.701Z,8.80
2023-01-22T06:22:04.013Z,7.33
2023-01-22T06:24:30.366Z,12.60
2023-01-22T06:26:57.615Z,8.27
2023-01-22T06:29:23.887Z,9.83
2023-01-22T06:31:50.234Z,8.93
2023-01-22T06:34:16.724Z,8.80
2023-01-22T06:36:44.175Z,12.37
2023-01-22T06:39:10.544Z,8.03
2023-01-22T06:41:36.943Z,8.90
2023-01-22T06:44:03.341Z,9.77
2023-01-22T06:46:29.755Z,11.60
2023-01-22T06:48:56.475Z,10.77
2023-01-22T06:51:22.999Z,10.87
2023-01-22T06:53:49.398Z,11.03
2023-01-22T06:56:15.729Z,10.73
2023-01-22T06:58:42.073Z,10.80
2023-01-22T07:01:09.670Z,9.53
2023-01-22T07:03:36.013Z,9.77
2023-01-22T07:06:03.593Z,10.17
2023-01-22T07:08:30.823Z,10.37
2023-01-22T07:10:57.242Z,12.07
2023-01-22T07:13:23.528Z,9.90
2023-01-22T07:15:49.850Z,12.67
2023-01-22T07:18:19.624Z,10.70
2023-01-22T07:20:47.215Z,11.80
2023-01-22T07:23:13.858Z,10.07
2023-01-22T07:25:40.253Z,13.13
2023-01-22T07:28:07.308Z,12.07
2023-01-22T07:30:33.692Z,11.60
2023-01-22T07:33:01.485Z,13.87
2023-01-22T07:35:28.319Z,10.47
2023-01-22T07:37:55.344Z,11.50
2023-01-22T07:40:21.741Z,11.37
2023-01-22T07:42:48.096Z,15.90
2023-01-22T07:45:14.557Z,13.60
2023-01-22T07:47:40.861Z,9.83
2023-01-22T07:50:07.589Z,12.03
2023-01-22T07:52:33.884Z,10.73
2023-01-22T07:55:00.185Z,6.40
2023-01-22T07:57:26.597Z,12.70
2023-01-22T07:59:52.891Z,8.60
2023-01-22T08:02:19.275Z,11.30
2023-01-22T08:04:45.609Z,7.67
2023-01-22T08:07:14.615Z,7.67
2023-01-22T08:09:40.916Z,9.67
2023-01-22T08:12:07.240Z,6.87
2023-01-22T08:14:33.526Z,7.63
2023-01-22T08:16:59.900Z,7.50
2023-01-22T08:19:26.251Z,7.57
2023-01-22T08:21:52.562Z,8.57
2023-01-22T08:24:18.881Z,9.33
2023-01-22T08:26:45.477Z,6.73
2023-01-22T08:29:11.855Z,9.03
2023-01-22T08:31:38.174Z,10.53
2023-01-22T08:34:04.756Z,8.60
2023-01-22T08:36:31.073Z,5.83
2023-01-22T08:38:57.470Z,14.03
2023-01-22T08:41:23.917Z,7.00
2023-01-22T08:43:51.408Z,5.60
2023-01-22T08:46:17.906Z,6.10
2023-01-22T08:48:44.462Z,16.07
2023-01-22T08:51:11.756Z,6.50
2023-01-22T08:53:38.151Z,7.00
2023-01-22T08:56:04.657Z,7.63
2023-01-22T08:58:31.051Z,8.80
2023-01-22T09:00:57.433Z,5.70
2023-01-22T09:03:24.130Z,8.90
2023-01-22T09:05:53.429Z,8.27
2023-01-22T09:08:20.373Z,7.47
2023-01-22T09:10:46.715Z,5.37
2023-01-22T09:13:13.042Z,8.97
2023-01-22T09:15:40.229Z,11.10
2023-01-22T09:18:06.959Z,6.50
2023-01-22T09:20:33.309Z,7.53
2023-01-22T09:22:59.661Z,7.30
2023-01-22T09:25:26.401Z,6.13
2023-01-22T09:27:57.952Z,7.00
2023-01-22T09:30:26.350Z,8.00
2023-01-22T09:32:52.904Z,6.40
2023-01-22T09:35:19.241Z,6.03
2023-01-22T09:37:45.558Z,9.70
2023-01-22T09:40:23.055Z,6.77
2023-01-22T09:42:49.610Z,7.67
2023-01-22T09:45:16.643Z,6.43
2023-01-22T09:47:47.466Z,6.07
2023-01-22T09:50:28.049Z,10.10
2023-01-22T09:52:56.933Z,6.20
2023-01-22T09:55:24.667Z,13.00
2023-01-22T09:57:55.643Z,9.23
2023-01-22T10:00:22.174Z,6.57
2023-01-22T10:02:51.240Z,10.53
2023-01-22T10:05:20.769Z,9.67
2023-01-22T10:07:50.959Z,6.60
2023-01-22T10:10:17.503Z,9.60
2023-01-22T10:12:44.621Z,6.03
2023-01-22T10:15:14.144Z,7.50
2023-01-22T10:17:41.005Z,6.17
2023-01-22T10:20:08.272Z,10.40
2023-01-22T10:22:34.581Z,8.60
2023-01-22T10:25:01.050Z,8.57
2023-01-22T10:27:35.136Z,12.80
2023-01-22T10:30:01.426Z,7.90
2023-01-22T10:32:28.598Z,8.50
2023-01-22T10:35:05.011Z,9.63
2023-01-22T10:37:42.169Z,7.57
2023-01-22T10:40:20.120Z,7.27
2023-01-22T10:42:46.605Z,8.17
2023-01-22T10:45:15.786Z,6.13
2023-01-22T10:47:42.189Z,7.17
2023-01-22T10:50:15.380Z,7.67
2023-01-22T10:52:43.168Z,6.57
2023-01-22T10:55:21.556Z,12.00
2023-01-22T10:57:50.486Z,8.50
2023-01-22T11:00:17.230Z,9.50
2023-01-22T11:02:45.915Z,9.17
2023-01-22T11:05:19.617Z,7.20
2023-01-22T11:07:47.654Z,5.73
2023-01-22T11:10:32.425Z,5.83
2023-01-22T11:13:15.435Z,10.13
2023-01-22T11:15:47.040Z,4.50
2023-01-22T11:18:18.256Z,5.77
2023-01-22T11:20:44.571Z,5.87
2023-01-22T11:23:10.871Z,6.27
2023-01-22T11:25:41.547Z,6.73
2023-01-22T11:28:12.366Z,5.70
2023-01-22T11:30:48.723Z,5.30
2023-01-22T11:33:28.830Z,4.77
2023-01-22T11:36:17.900Z,6.20
2023-01-22T11:38:47.637Z,5.30
2023-01-22T11:41:20.100Z,6.07
2023-01-22T11:43:55.512Z,8.17
2023-01-22T11:46:25.052Z,4.57
2023-01-22T11:48:57.415Z,5.77
2023-01-22T11:51:29.700Z,7.60
2023-01-22T11:54:14.606Z,7.13
2023-01-22T11:56:40.918Z,7.47
2023-01-22T11:59:10.363Z,11.93
2023-01-22T12:01:52.097Z,4.93
2023-01-22T12:04:30.709Z,7.67
2023-01-22T12:06:57.192Z,5.47
2023-01-22T12:09:29.337Z,8.40
2023-01-22T12:12:13.117Z,5.13
2023-01-22T12:14:58.264Z,6.40
2023-01-22T12:17:30.570Z,8.23
2023-01-22T12:20:18.330Z,6.17
2023-01-22T12:22:52.167Z,6.33
2023-01-22T12:25:37.615Z,7.63
2023-01-22T12:28:10.224Z,6.07
2023-01-22T12:30:45.443Z,7.13
2023-01-22T12:33:13.520Z,8.27
2023-01-22T12:35:40.106Z,4.40
2023-01-22T12:38:21.811Z,7.17
2023-01-22T12:41:06.472Z,7.60
2023-01-22T12:43:53.024Z,7.47
2023-01-22T12:46:38.264Z,6.60
2023-01-22T12:49:11.880Z,6.73
2023-01-22T12:51:38.170Z,6.93
2023-01-22T12:54:18.714Z,5.93
2023-01-22T12:56:45.063Z,9.23
2023-01-22T12:59:30.092Z,7.07
2023-01-22T13:02:00.683Z,6.83
2023-01-22T13:04:31.391Z,4.30
2023-01-22T13:07:18.731Z,8.03
2023-01-22T13:09:45.087Z,9.50
2023-01-22T13:12:24.957Z,6.87
2023-01-22T13:14:51.760Z,5.60
2023-01-22T13:17:22.183Z,6.93
2023-01-22T13:19:50.492Z,6.57
2023-01-22T13:22:21.716Z,4.93
2023-01-22T13:24:49.528Z,8.53
2023-01-22T13:27:22.138Z,7.13
2023-01-22T13:29:48.498Z,6.20
2023-01-22T13:32:22.202Z,7.80
2023-01-22T13:34:48.849Z,7.23
2023-01-22T13:37:22.299Z,8.40
2023-01-22T13:39:48.872Z,9.60
2023-01-22T13:42:15.279Z,7.53
2023-01-22T13:44:44.812Z,9.63
2023-01-22T13:47:25.552Z,6.00
2023-01-22T13:49:51.900Z,8.73
2023-01-22T13:52:20.014Z,5.30
2023-01-22T13:54:49.105Z,6.00
2023-01-22T13:57:21.477Z,5.93
2023-01-22T13:59:53.577Z,8.37
2023-01-22T14:02:21.951Z,8.43
2023-01-22T14:04:48.844Z,7.77
2023-01-22T14:07:24.016Z,6.43
2023-01-22T14:09:50.412Z,9.57
2023-01-22T14:12:18.317Z,6.37
2023-01-22T14:14:45.076Z,7.93
2023-01-22T14:17:21.883Z,8.63
2023-01-22T14:19:48.188Z,5.83
2023-01-22T14:22:14.490Z,8.03
2023-01-22T14:24:40.879Z,8.07
2023-01-22T14:27:07.287Z,6.17
2023-01-22T14:29:33.718Z,7.13
2023-01-22T14:32:00.094Z,8.47
2023-01-22T14:34:26.404Z,7.47
2023-01-22T14:36:54.113Z,10.53
2023-01-22T14:39:21.681Z,10.33
2023-01-22T14:41:51.402Z,6.40
2023-01-22T14:44:17.821Z,6.03
2023-01-22T14:46:44.186Z,8.03
2023-01-22T14:49:10.578Z,10.60
2023-01-22T14:51:36.953Z,12.10
2023-01-22T14:54:03.287Z,10.87
2023-01-22T14:56:29.574Z,9.23
2023-01-22T14:58:55.889Z,11.47
2023-01-22T15:01:22.736Z,9.47
2023-01-22T15:03:49.076Z,10.30
2023-01-22T15:06:15.400Z,7.37
2023-01-22T15:08:41.731Z,7.33
2023-01-22T15:11:08.128Z,6.60
2023-01-22T15:13:34.602Z,5.90
2023-01-22T15:16:08.240Z,8.60
2023-01-22T15:18:38.111Z,8.63
2023-01-22T15:21:04.682Z,9.43
2023-01-22T15:23:31.578Z,10.47
2023-01-22T15:26:09.657Z,8.90
2023-01-22T15:28:36.211Z,7.70
2023-01-22T15:31:10.390Z,7.53
2023-01-22T15:33:37.114Z,12.03
2023-01-22T15:36:04.665Z,9.60
2023-01-22T15:38:31.012Z,14.10
2023-01-22T15:41:07.833Z,10.70
2023-01-22T15:43:34.288Z,8.43
2023-01-22T15:46:00.712Z,8.07
2023-01-22T15:48:27.041Z,8.40
2023-01-22T15:50:53.451Z,9.87
2023-01-22T15:53:19.979Z,9.70
2023-01-22T15:55:49.774Z,11.27
2023-01-22T15:58:16.093Z,9.67
2023-01-22T16:00:42.433Z,8.67
2023-01-22T16:03:09.903Z,11.60
2023-01-22T16:05:36.302Z,8.63
2023-01-22T16:08:03.380Z,9.67
2023-01-22T16:10:29.763Z,9.93
2023-01-22T16:12:56.151Z,9.70
2023-01-22T16:15:22.467Z,9.43
2023-01-22T16:17:48.834Z,9.07
2023-01-22T16:20:15.416Z,10.67
2023-01-22T16:22:42.983Z,9.80
2023-01-22T16:25:09.431Z,10.63
2023-01-22T16:27:36.852Z,9.50
2023-01-22T16:30:03.713Z,8.30
2023-01-22T16:32:30.196Z,8.10
2023-01-22T16:34:56.746Z,12.13
2023-01-22T16:37:23.104Z,11.70
2023-01-22T16:39:49.397Z,13.17
2023-01-22T16:42:15.793Z,7.80
2023-01-22T16:44:42.130Z,8.87
2023-01-22T16:47:08.454Z,9.07
2023-01-22T16:49:34.795Z,8.23
2023-01-22T16:52:16.641Z,11.53
2023-01-22T16:54:48.022Z,10.77
2023-01-22T16:57:15.602Z,7.43
2023-01-22T16:59:41.988Z,9.83
2023-01-22T17:02:13.093Z,13.37
2023-01-22T17:04:39.582Z,12.90
2023-01-22T17:07:06.245Z,10.43
2023-01-22T17:09:33.188Z,10.23
2023-01-22T17:12:00.650Z,11.47
2023-01-22T17:14:28.449Z,11.73
2023-01-22T17:16:54.835Z,11.43
2023-01-22T17:19:21.438Z,8.90
2023-01-22T17:21:49.721Z,10.13
2023-01-22T17:24:16.111Z,9.43
2023-01-22T17:26:42.532Z,9.70
2023-01-22T17:29:09.560Z,8.87
2023-01-22T17:31:37.046Z,8.37
2023-01-22T17:34:04.182Z,11.93
2023-01-22T17:36:31.159Z,9.33
2023-01-22T17:38:57.655Z,12.33
2023-01-22T17:41:24.901Z,10.63
2023-01-22T17:43:52.455Z,9.07
2023-01-22T17:46:20.158Z,14.50
2023-01-22T17:48:47.348Z,12.00
2023-01-22T17:51:15.052Z,9.10
2023-01-22T17:53:42.299Z,8.90
2023-01-22T17:56:13.272Z,11.33
2023-01-22T17:58:44.139Z,8.37
2023-01-22T18:01:11.171Z,10.20
2023-01-22T18:03:37.732Z,9.57
2023-01-22T18:06:04.316Z,11.47
2023-01-22T18:08:31.235Z,8.67
2023-01-22T18:10:58.075Z,11.43
2023-01-22T18:13:24.963Z,11.43
2023-01-22T18:15:51.884Z,10.03
2023-01-22T18:18:18.359Z,9.20
2023-01-22T18:20:47.945Z,9.20
2023-01-22T18:23:16.407Z,10.90
2023-01-22T18:25:46.703Z,9.20
2023-01-22T18:28:14.119Z,12.67
2023-01-22T18:30:40.747Z,10.77
2023-01-22T18:33:07.166Z,10.27
2023-01-22T18:35:34.676Z,9.80
2023-01-22T18:38:01.476Z,12.83
2023-01-22T18:40:30.928Z,11.53
2023-01-22T18:42:57.495Z,11.27
2023-01-22T18:45:24.367Z,12.03
2023-01-22T18:47:54.451Z,11.63
2023-01-22T18:50:21.394Z,12.93
2023-01-22T18:52:47.945Z,16.33
2023-01-22T18:55:15.967Z,17.47
2023-01-22T18:57:44.775Z,15.40
2023-01-22T19:00:13.060Z,14.83
2023-01-22T19:02:39.353Z,12.87
2023-01-22T19:05:06.552Z,12.07
2023-01-22T19:07:38.070Z,12.93
2023-01-22T19:10:05.909Z,11.20
2023-01-22T19:12:32.197Z,18.47
2023-01-22T19:14:58.740Z,16.47
2023-01-22T19:17:25.691Z,14.90
2023-01-22T19:19:52.043Z,14.33
2023-01-22T19:22:18.388Z,13.27
2023-01-22T19:24:45.587Z,23.83
2023-01-22T19:27:12.590Z,21.03
2023-01-22T19:29:39.687Z,12.83
2023-01-22T19:32:06.468Z,14.47
2023-01-22T19:34:32.867Z,14.13
2023-01-22T19:37:02.269Z,14.83
2023-01-22T19:39:29.078Z,14.33
2023-01-22T19:41:55.659Z,18.43
2023-01-22T19:44:22.220Z,24.10
2023-01-22T19:46:48.715Z,21.10
2023-01-22T19:49:15.121Z,13.77
2023-01-22T19:51:41.553Z,16.97
2023-01-22T19:54:08.813Z,14.73
2023-01-22T19:56:36.132Z,19.23
2023-01-22T19:59:05.960Z,13.70
2023-01-22T20:01:33.447Z,18.43
2023-01-22T20:04:00.053Z,13.67
2023-01-22T20:06:26.686Z,14.77
2023-01-22T20:08:54.668Z,23.10
2023-01-22T20:11:20.969Z,21.10
2023-01-22T20:13:48.758Z,16.10
2023-01-22T20:16:19.205Z,15.83
2023-01-22T20:18:45.612Z,18.67
2023-01-22T20:21:13.049Z,17.33
2023-01-22T20:23:39.369Z,16.90
2023-01-22T20:26:07.532Z,20.93
2023-01-22T20:28:34.231Z,18.37
2023-01-22T20:31:02.231Z,12.77
2023-01-22T20:33:28.731Z,16.33
2023-01-22T20:35:58.696Z,14.67
2023-01-22T20:38:25.108Z,17.03
2023-01-22T20:40:51.809Z,18.83
2023-01-22T20:43:19.931Z,13.23
2023-01-22T20:45:57.294Z,15.03
2023-01-22T20:48:23.682Z,21.57
2023-01-22T20:50:50.036Z,14.07
2023-01-22T20:53:16.377Z,16.23
2023-01-22T20:55:42.680Z,15.47
2023-01-22T20:58:08.986Z,20.47
2023-01-22T21:00:35.336Z,18.57
2023-01-22T21:03:01.800Z,19.17
2023-01-22T21:05:29.192Z,15.13
2023-01-22T21:07:55.715Z,12.97
2023-01-22T21:10:22.111Z,15.30
2023-01-22T21:12:48.431Z,12.67
2023-01-22T21:15:14.912Z,15.03
2023-01-22T21:17:41.268Z,20.93
2023-01-22T21:20:08.303Z,16.07
2023-01-22T21:22:35.940Z,13.70
2023-01-22T21:25:02.303Z,11.80
2023-01-22T21:27:28.680Z,14.17
2023-01-22T21:29:55.258Z,16.87
2023-01-22T21:32:21.627Z,14.00
2023-01-22T21:34:48.231Z,15.07
2023-01-22T21:37:14.622Z,14.23
2023-01-22T21:39:44.974Z,14.93
2023-01-22T21:42:31.365Z,14.80
2023-01-22T21:45:16.286Z,14.97
2023-01-22T21:47:42.684Z,13.77
2023-01-22T21:50:09.443Z,13.00
2023-01-22T21:52:36.033Z,12.63
2023-01-22T21:55:02.367Z,18.47
2023-01-22T21:57:29.304Z,18.10
2023-01-22T21:59:55.658Z,15.37
2023-01-22T22:02:22.354Z,14.37
2023-01-22T22:04:48.832Z,19.47
2023-01-22T22:07:15.228Z,16.73
2023-01-22T22:09:42.245Z,14.57
2023-01-22T22:12:09.826Z,15.63
2023-01-22T22:14:36.315Z,15.03
2023-01-22T22:17:02.745Z,17.87
2023-01-22T22:19:29.142Z,15.57
2023-01-22T22:21:55.567Z,15.83
2023-01-22T22:24:22.184Z,13.20
2023-01-22T22:26:48.555Z,14.83
2023-01-22T22:29:14.964Z,15.80
2023-01-22T22:31:41.446Z,14.13
2023-01-22T22:34:07.905Z,15.87
2023-01-22T22:36:34.348Z,15.73
2023-01-22T22:39:01.372Z,18.97
2023-01-22T22:41:29.626Z,15.10
2023-01-22T22:43:56.632Z,18.20
2023-01-22T22:46:22.960Z,18.90
2023-01-22T22:48:49.863Z,13.33
2023-01-22T22:51:20.027Z,17.73
2023-01-22T22:53:47.003Z,16.83
2023-01-22T22:56:13.802Z,17.00
2023-01-22T22:58:40.148Z,15.23
2023-01-22T23:01:10.982Z,20.87
2023-01-22T23:03:37.849Z,15.50
2023-01-22T23:06:08.196Z,12.93
2023-01-22T23:08:36.065Z,20.27
2023-01-22T23:11:03.722Z,18.47
2023-01-22T23:13:30.139Z,16.90
2023-01-22T23:16:00.944Z,13.20
2023-01-22T23:18:27.399Z,20.17
2023-01-22T23:20:53.784Z,16.63
2023-01-22T23:23:20.129Z,18.00
2023-01-22T23:25:46.480Z,17.50
2023-01-22T23:28:12.788Z,16.43
2023-01-22T23:30:39.477Z,17.20
2023-01-22T23:33:05.851Z,17.40
2023-01-22T23:35:33.256Z,18.07
2023-01-22T23:37:59.582Z,14.43
2023-01-22T23:40:25.911Z,13.40
2023-01-22T23:42:52.217Z,18.47
2023-01-22T23:45:18.647Z,15.70
2023-01-22T23:47:44.946Z,16.87
2023-01-22T23:50:11.268Z,22.63
2023-01-22T23:52:37.695Z,16.03
2023-01-22T23:55:04.269Z,16.13
2023-01-22T23:57:30.553Z,16.70
2023-01-22T23:59:56.974Z,20.43
